Time;durP1;ratioP1;P1;durP2;ratioP2;P2;SDS_P1;SDS_P2;PMS_P1;PMS_P2;Temp;Humidity;BMP_temperature;BMP_pressure;BME280_temperature;BME280_humidity;BME280_pressure;Samples;Min_cycle;Max_cycle;Signal;HPM_P1;HPM_P2
2022/03/18 00:00:33;;;;;;;13.25;6.53;;;12.30;71.40;;;;;;5032782;28;20462;-64
2022/03/18 00:02:58;;;;;;;13.80;7.50;;;12.20;71.60;;;;;;5033207;28;20246;-64
2022/03/18 00:05:24;;;;;;;10.63;6.82;;;12.20;71.30;;;;;;5033103;28;20523;-64
2022/03/18 00:07:51;;;;;;;14.52;7.50;;;12.20;71.40;;;;;;5033167;28;20022;-64
2022/03/18 00:10:18;;;;;;;10.98;7.78;;;12.20;71.20;;;;;;5032980;28;20045;-63
2022/03/18 00:12:45;;;;;;;13.73;7.93;;;12.10;71.80;;;;;;5033177;28;20033;-63
2022/03/18 00:15:12;;;;;;;12.63;7.53;;;12.20;71.40;;;;;;5032609;28;20494;-64
2022/03/18 00:17:39;;;;;;;12.80;7.65;;;12.20;71.50;;;;;;5033109;28;20497;-64
2022/03/18 00:20:06;;;;;;;11.73;7.32;;;12.10;71.50;;;;;;5032968;28;20033;-63
2022/03/18 00:22:32;;;;;;;14.93;6.95;;;12.10;72.00;;;;;;5032776;28;20034;-64
2022/03/18 00:24:58;;;;;;;11.63;6.15;;;12.10;71.70;;;;;;5033209;28;20017;-64
2022/03/18 00:27:26;;;;;;;12.30;6.68;;;12.10;72.10;;;;;;5033149;28;20025;-64
2022/03/18 00:29:52;;;;;;;14.52;6.45;;;12.00;72.10;;;;;;5032300;28;20080;-64
2022/03/18 00:32:18;;;;;;;12.48;6.32;;;12.10;72.00;;;;;;5032974;28;20025;-64
2022/03/18 00:34:43;;;;;;;11.27;5.97;;;12.00;72.20;;;;;;5032797;28;20105;-64
2022/03/18 00:37:09;;;;;;;10.70;6.22;;;12.10;72.40;;;;;;5032778;28;20104;-64
2022/03/18 00:39:35;;;;;;;10.43;5.78;;;12.00;72.30;;;;;;5032794;28;20137;-63
2022/03/18 00:42:01;;;;;;;9.57;5.72;;;12.00;72.40;;;;;;5032785;28;20029;-64
2022/03/18 00:44:26;;;;;;;11.60;5.90;;;11.90;72.70;;;;;;5032371;28;20029;-64
2022/03/18 00:46:53;;;;;;;10.27;6.18;;;11.90;72.70;;;;;;5032830;28;20426;-63
2022/03/18 00:52:06;;;;;;;13.80;6.50;;;11.90;72.90;;;;;;5033083;28;20056;-64
2022/03/18 00:54:35;;;;;;;9.02;5.82;;;11.80;73.20;;;;;;5032699;28;20088;-65
2022/03/18 00:57:02;;;;;;;13.27;7.30;;;11.80;73.20;;;;;;5033838;28;20082;-65
2022/03/18 00:59:28;;;;;;;11.75;6.22;;;11.80;73.20;;;;;;5036099;28;20078;-65
2022/03/18 01:01:54;;;;;;;11.23;6.22;;;11.80;73.20;;;;;;5036324;28;20097;-65
2022/03/18 01:04:21;;;;;;;11.65;6.45;;;11.90;72.70;;;;;;5036190;28;20032;-64
2022/03/18 01:06:49;;;;;;;14.50;6.35;;;11.80;72.70;;;;;;5036665;28;20033;-65
2022/03/18 01:09:15;;;;;;;8.50;5.85;;;11.80;72.70;;;;;;5036435;28;20035;-63
2022/03/18 01:11:42;;;;;;;10.85;6.15;;;11.80;73.00;;;;;;5036167;28;20470;-65
2022/03/18 01:14:07;;;;;;;10.55;5.97;;;11.80;73.00;;;;;;5035847;28;20036;-65
2022/03/18 01:16:33;;;;;;;13.80;5.60;;;11.80;72.70;;;;;;5036192;28;20025;-64
2022/03/18 01:18:58;;;;;;;12.48;5.72;;;11.80;72.90;;;;;;5036122;28;20030;-64
2022/03/18 01:21:24;;;;;;;12.95;6.50;;;11.80;72.90;;;;;;5035920;28;20032;-64
2022/03/18 01:23:49;;;;;;;10.68;5.85;;;11.70;73.10;;;;;;5036226;28;20394;-65
2022/03/18 01:26:15;;;;;;;15.60;5.95;;;11.70;73.50;;;;;;5035847;28;20490;-65
2022/03/18 01:28:41;;;;;;;9.10;5.85;;;11.60;73.70;;;;;;5035528;28;20389;-65
2022/03/18 01:31:06;;;;;;;10.57;6.18;;;11.60;73.90;;;;;;5035771;28;20026;-64
2022/03/18 01:33:33;;;;;;;11.75;5.68;;;11.70;73.90;;;;;;5035807;28;20025;-64
2022/03/18 01:35:59;;;;;;;10.25;5.68;;;11.70;73.60;;;;;;5035951;28;20099;-65
2022/03/18 01:38:25;;;;;;;10.48;5.07;;;11.60;73.80;;;;;;5035525;28;20474;-64
2022/03/18 01:40:51;;;;;;;13.63;5.45;;;11.60;73.90;;;;;;5035679;28;20038;-65
2022/03/18 01:43:17;;;;;;;12.13;5.28;;;11.70;73.90;;;;;;5035292;28;20033;-65
2022/03/18 01:45:42;;;;;;;11.05;5.70;;;11.70;73.90;;;;;;5035618;28;20077;-64
2022/03/18 01:48:08;;;;;;;10.88;4.93;;;11.60;74.20;;;;;;5035732;28;20030;-64
2022/03/18 01:50:34;;;;;;;8.50;4.75;;;11.60;74.70;;;;;;5035239;28;20032;-65
2022/03/18 01:53:00;;;;;;;10.55;5.30;;;11.50;74.70;;;;;;5035608;28;20022;-65
2022/03/18 01:55:25;;;;;;;9.00;5.10;;;11.50;74.70;;;;;;5035394;28;20029;-64
2022/03/18 01:57:51;;;;;;;14.25;5.57;;;11.50;74.70;;;;;;5035251;28;20482;-65
2022/03/18 02:00:21;;;;;;;11.02;5.10;;;11.50;74.70;;;;;;5035342;28;20087;-65
2022/03/18 02:02:47;;;;;;;9.90;4.80;;;11.50;74.80;;;;;;5035328;28;20419;-64
2022/03/18 02:05:13;;;;;;;10.60;5.53;;;11.40;74.40;;;;;;5035466;28;20053;-64
2022/03/18 02:07:39;;;;;;;12.35;5.35;;;11.50;74.50;;;;;;5035116;28;20418;-64
2022/03/18 02:10:06;;;;;;;11.52;5.68;;;11.50;74.50;;;;;;5035102;28;20041;-63
2022/03/18 02:12:32;;;;;;;11.40;5.47;;;11.40;74.70;;;;;;5034850;28;20068;-63
2022/03/18 02:14:58;;;;;;;9.63;5.13;;;11.40;74.70;;;;;;5035055;28;20470;-63
2022/03/18 02:17:24;;;;;;;11.02;5.65;;;11.40;74.60;;;;;;5035186;28;20036;-63
2022/03/18 02:19:50;;;;;;;9.77;4.68;;;11.40;74.40;;;;;;5027518;28;20029;-59
2022/03/18 02:22:19;;;;;;;10.55;5.43;;;11.30;74.70;;;;;;5015152;28;20037;-63
2022/03/18 02:24:47;;;;;;;12.63;5.82;;;11.40;74.50;;;;;;5014392;28;20108;-64
2022/03/18 02:27:13;;;;;;;10.77;6.18;;;11.30;74.60;;;;;;5014284;28;20037;-65
2022/03/18 02:29:40;;;;;;;16.60;6.40;;;11.30;75.00;;;;;;4997233;28;20030;-63
2022/03/18 02:32:07;;;;;;;13.35;6.28;;;11.30;75.20;;;;;;5014929;28;20044;-64
2022/03/18 02:34:34;;;;;;;10.57;5.47;;;11.30;75.00;;;;;;5014985;28;20112;-64
2022/03/18 02:37:00;;;;;;;13.63;5.07;;;11.30;74.90;;;;;;5014758;28;20069;-62
2022/03/18 02:39:25;;;;;;;8.00;4.78;;;11.30;75.10;;;;;;5014840;28;20065;-61
2022/03/18 02:41:51;;;;;;;10.75;5.45;;;11.20;75.30;;;;;;5014501;28;20173;-61
2022/03/18 02:44:17;;;;;;;11.90;5.93;;;11.20;75.20;;;;;;5014739;28;20034;-60
2022/03/18 02:46:42;;;;;;;13.48;5.40;;;11.20;75.50;;;;;;5014734;28;20053;-63
2022/03/18 02:49:08;;;;;;;13.18;5.32;;;11.20;75.60;;;;;;5014750;28;20518;-62
2022/03/18 02:51:37;;;;;;;13.70;5.00;;;11.20;75.50;;;;;;5014571;28;20353;-60
2022/03/18 02:54:06;;;;;;;11.93;5.65;;;11.20;75.10;;;;;;5014646;28;20569;-59
2022/03/18 02:56:32;;;;;;;13.07;6.20;;;11.10;75.40;;;;;;5014101;28;20497;-62
2022/03/18 02:59:00;;;;;;;13.43;5.30;;;11.10;75.40;;;;;;5014319;28;20030;-60
2022/03/18 03:01:26;;;;;;;9.27;5.07;;;11.20;75.50;;;;;;5014264;28;20021;-63
2022/03/18 03:03:52;;;;;;;12.20;5.43;;;11.10;75.60;;;;;;5014581;28;20029;-64
2022/03/18 03:09:02;;;;;;;9.57;4.70;;;11.10;75.80;;;;;;5014464;28;20578;-60
2022/03/18 03:11:28;;;;;;;12.10;5.05;;;11.10;75.70;;;;;;4996431;28;20132;-59
2022/03/18 03:13:55;;;;;;;16.80;5.38;;;11.10;75.90;;;;;;5014161;28;20352;-64
2022/03/18 03:16:21;;;;;;;10.43;4.93;;;11.10;76.00;;;;;;5014238;28;20068;-64
2022/03/18 03:18:48;;;;;;;12.05;5.10;;;11.00;76.10;;;;;;5014297;28;20076;-64
2022/03/18 03:21:14;;;;;;;13.00;5.80;;;11.00;76.30;;;;;;5013575;28;20109;-60
2022/03/18 03:23:40;;;;;;;10.38;4.90;;;11.00;75.90;;;;;;5013667;28;20044;-64
2022/03/18 03:26:06;;;;;;;12.43;5.28;;;11.00;76.20;;;;;;5014022;28;20467;-59
2022/03/18 03:28:31;;;;;;;8.65;5.43;;;10.90;76.10;;;;;;5013716;28;20045;-60
2022/03/18 03:30:58;;;;;;;14.65;5.97;;;10.90;76.00;;;;;;5014013;28;20175;-60
2022/03/18 03:33:25;;;;;;;10.10;4.88;;;10.90;75.80;;;;;;5014010;28;20521;-64
2022/03/18 03:35:50;;;;;;;7.30;4.68;;;10.80;75.80;;;;;;5013840;28;20025;-60
2022/03/18 03:38:16;;;;;;;10.60;5.68;;;10.80;75.70;;;;;;5013262;28;20529;-60
2022/03/18 03:40:43;;;;;;;10.43;5.78;;;10.80;75.40;;;;;;5013658;28;20030;-61
2022/03/18 03:43:09;;;;;;;12.07;6.03;;;10.80;75.70;;;;;;5013884;28;20095;-59
2022/03/18 03:45:38;;;;;;;12.73;6.10;;;10.80;75.70;;;;;;5013725;28;20026;-60
2022/03/18 03:48:05;;;;;;;11.07;5.22;;;10.80;75.60;;;;;;5013596;28;20022;-59
2022/03/18 03:50:32;;;;;;;9.25;6.03;;;10.80;75.80;;;;;;5013428;28;20021;-63
2022/03/18 03:52:57;;;;;;;12.45;5.60;;;10.70;76.00;;;;;;5013208;28;20124;-61
2022/03/18 03:55:23;;;;;;;13.75;5.22;;;10.70;76.00;;;;;;5013686;28;20022;-59
2022/03/18 03:57:48;;;;;;;11.20;5.78;;;10.80;75.50;;;;;;5013562;28;20034;-60
2022/03/18 04:00:16;;;;;;;10.70;5.28;;;10.70;75.70;;;;;;5013628;28;20101;-64
2022/03/18 04:02:45;;;;;;;10.95;5.35;;;10.70;75.60;;;;;;5013238;28;20367;-62
2022/03/18 04:05:12;;;;;;;12.23;5.20;;;10.70;75.90;;;;;;5013938;28;20105;-59
2022/03/18 04:07:39;;;;;;;9.55;5.57;;;10.60;75.80;;;;;;5013144;28;20052;-62
2022/03/18 04:10:06;;;;;;;13.07;5.32;;;10.60;75.80;;;;;;5013534;28;20022;-60
2022/03/18 04:12:34;;;;;;;10.25;5.40;;;10.60;75.60;;;;;;5013133;28;20026;-62
2022/03/18 04:15:01;;;;;;;11.48;5.70;;;10.60;75.80;;;;;;5013452;28;20014;-62
2022/03/18 04:17:26;;;;;;;8.20;4.82;;;10.60;75.60;;;;;;5013280;28;20437;-60
2022/03/18 04:19:53;;;;;;;10.95;5.15;;;10.60;76.00;;;;;;5013170;28;20499;-64
2022/03/18 04:22:20;;;;;;;9.55;5.25;;;10.60;75.70;;;;;;5012887;28;20030;-64
2022/03/18 04:24:46;;;;;;;33.05;8.30;;;10.50;75.60;;;;;;5013064;28;20014;-62
2022/03/18 04:27:11;;;;;;;12.50;5.28;;;10.50;75.40;;;;;;5013379;28;20498;-63
2022/03/18 04:29:37;;;;;;;11.55;5.03;;;10.70;74.60;;;;;;5012932;28;20475;-61
2022/03/18 04:32:03;;;;;;;11.63;5.40;;;10.80;73.60;;;;;;5014518;28;20053;-64
2022/03/18 04:34:28;;;;;;;11.50;5.40;;;10.90;73.10;;;;;;5017158;28;20491;-63
2022/03/18 04:36:55;;;;;;;9.55;5.53;;;10.90;72.70;;;;;;5016758;28;20026;-60
2022/03/18 04:39:20;;;;;;;12.05;4.88;;;11.00;72.60;;;;;;5017084;28;20513;-62
2022/03/18 04:41:47;;;;;;;9.45;5.07;;;11.00;72.50;;;;;;5016903;28;20073;-59
2022/03/18 04:44:12;;;;;;;10.23;4.07;;;11.00;72.60;;;;;;5017063;28;20049;-63
2022/03/18 04:46:38;;;;;;;8.70;4.93;;;11.00;72.50;;;;;;5017043;28;20469;-62
2022/03/18 04:49:04;;;;;;;12.27;4.43;;;10.90;72.40;;;;;;5016681;28;20030;-63
2022/03/18 04:51:30;;;;;;;12.07;4.72;;;10.90;72.30;;;;;;5016530;28;20032;-62
2022/03/18 04:53:57;;;;;;;7.93;4.47;;;10.90;72.40;;;;;;5016971;28;20105;-59
2022/03/18 04:59:06;;;;;;;11.50;5.05;;;10.90;72.40;;;;;;5016842;28;20087;-62
2022/03/18 05:01:32;;;;;;;11.18;4.85;;;10.90;72.50;;;;;;5016654;28;20042;-62
2022/03/18 05:03:58;;;;;;;8.55;4.38;;;10.90;72.30;;;;;;5016394;28;20053;-61
2022/03/18 05:06:24;;;;;;;8.23;4.05;;;10.90;72.30;;;;;;5016496;28;20022;-62
2022/03/18 05:08:49;;;;;;;9.93;4.80;;;10.90;72.30;;;;;;5016403;28;20045;-62
2022/03/18 05:11:14;;;;;;;11.93;4.20;;;10.90;72.40;;;;;;5016708;28;20049;-63
2022/03/18 05:13:41;;;;;;;8.70;4.22;;;10.90;72.50;;;;;;5016458;28;20548;-62
2022/03/18 05:16:07;;;;;;;10.52;4.28;;;10.90;72.50;;;;;;5016287;28;20491;-62
2022/03/18 05:18:33;;;;;;;11.40;4.20;;;10.90;72.60;;;;;;5016353;28;20026;-63
2022/03/18 05:20:58;;;;;;;9.65;4.47;;;10.90;72.60;;;;;;5016187;28;20061;-63
2022/03/18 05:23:24;;;;;;;10.27;4.13;;;10.80;72.60;;;;;;5016383;28;20486;-63
2022/03/18 05:25:50;;;;;;;10.57;3.97;;;10.80;72.50;;;;;;5016055;28;20026;-63
2022/03/18 05:28:17;;;;;;;7.95;3.97;;;10.80;72.50;;;;;;5016269;28;20121;-63
2022/03/18 05:30:43;;;;;;;9.52;3.85;;;10.90;72.60;;;;;;5016044;28;20088;-63
2022/03/18 05:33:09;;;;;;;8.30;4.00;;;10.80;72.60;;;;;;5016085;28;20029;-63
2022/03/18 05:35:34;;;;;;;9.23;3.95;;;10.80;72.50;;;;;;5015722;28;20022;-62
2022/03/18 05:38:00;;;;;;;11.05;4.93;;;10.80;72.40;;;;;;5014527;28;20410;-63
2022/03/18 05:40:25;;;;;;;9.15;4.72;;;10.80;72.30;;;;;;5015976;28;20414;-62
2022/03/18 05:42:51;;;;;;;8.98;4.75;;;10.80;72.30;;;;;;5015452;28;20041;-63
2022/03/18 05:45:17;;;;;;;11.02;5.05;;;10.80;72.40;;;;;;5015741;28;20030;-63
2022/03/18 05:47:42;;;;;;;11.15;4.82;;;10.70;72.40;;;;;;5015903;28;20025;-61
2022/03/18 05:50:08;;;;;;;11.65;5.43;;;10.80;72.60;;;;;;5015432;28;20475;-62
2022/03/18 05:52:35;;;;;;;8.90;4.63;;;10.80;72.50;;;;;;4997937;28;20026;-63
2022/03/18 05:55:02;;;;;;;12.38;5.35;;;10.70;72.60;;;;;;5015545;28;20479;-62
2022/03/18 05:57:28;;;;;;;14.07;5.65;;;10.70;72.60;;;;;;5015707;28;20022;-63
2022/03/18 05:59:55;;;;;;;13.18;5.80;;;10.70;72.60;;;;;;5015327;28;20099;-64
2022/03/18 06:02:21;;;;;;;9.57;4.53;;;10.70;72.80;;;;;;5032597;28;20084;-62
2022/03/18 06:04:47;;;;;;;10.13;5.03;;;10.70;72.90;;;;;;5035107;28;20045;-64
2022/03/18 06:07:14;;;;;;;9.63;4.93;;;10.70;72.80;;;;;;5034945;28;20064;-64
2022/03/18 06:12:24;;;;;;;13.32;5.43;;;10.70;72.70;;;;;;5035360;28;20045;-64
2022/03/18 06:14:49;;;;;;;12.35;5.30;;;10.70;72.80;;;;;;5032784;28;20022;-62
2022/03/18 06:17:15;;;;;;;11.75;5.35;;;10.70;72.80;;;;;;5024224;28;20045;-62
2022/03/18 06:19:40;;;;;;;12.35;4.90;;;10.70;72.70;;;;;;5020221;28;20382;-63
2022/03/18 06:22:08;;;;;;;11.65;4.65;;;10.60;72.90;;;;;;5007679;28;20034;-63
2022/03/18 06:24:34;;;;;;;15.45;5.18;;;10.60;72.80;;;;;;5017127;28;20026;-61
2022/03/18 06:27:01;;;;;;;13.75;5.50;;;10.60;73.00;;;;;;5021714;28;20060;-63
2022/03/18 06:29:30;;;;;;;13.48;4.93;;;10.60;73.00;;;;;;5025792;28;20025;-58
2022/03/18 06:31:56;;;;;;;10.35;4.50;;;10.60;73.10;;;;;;5021278;28;20033;-63
2022/03/18 06:34:23;;;;;;;14.32;5.40;;;10.60;73.10;;;;;;5022186;28;20018;-62
2022/03/18 06:36:51;;;;;;;10.25;4.68;;;10.60;73.20;;;;;;5032524;28;20018;-60
2022/03/18 06:39:19;;;;;;;8.35;4.47;;;10.60;73.50;;;;;;5032284;28;20022;-57
2022/03/18 06:41:44;;;;;;;9.63;4.78;;;10.60;73.50;;;;;;5021427;28;20057;-59
2022/03/18 06:44:10;;;;;;;11.02;4.63;;;10.70;73.60;;;;;;5032911;28;20017;-60
2022/03/18 06:46:37;;;;;;;10.88;5.07;;;10.70;73.80;;;;;;5030104;28;20510;-56
2022/03/18 06:49:04;;;;;;;7.78;4.10;;;10.70;73.60;;;;;;5030135;28;20024;-58
2022/03/18 06:51:29;;;;;;;14.02;4.82;;;10.80;73.80;;;;;;5030780;28;20017;-58
2022/03/18 06:53:55;;;;;;;14.77;4.93;;;10.80;73.80;;;;;;5031863;28;20475;-62
2022/03/18 06:56:21;;;;;;;11.50;5.55;;;10.80;73.00;;;;;;5026953;28;20033;-62
2022/03/18 06:58:47;;;;;;;11.73;5.57;;;10.80;73.00;;;;;;5031139;28;20017;-60
2022/03/18 07:01:13;;;;;;;11.98;5.68;;;10.80;72.70;;;;;;5029284;28;20013;-58
2022/03/18 07:03:38;;;;;;;17.20;6.38;;;10.80;72.50;;;;;;5019754;28;20574;-62
2022/03/18 07:06:06;;;;;;;15.77;5.43;;;10.90;72.30;;;;;;5024531;28;20490;-63
2022/03/18 07:08:32;;;;;;;13.73;6.15;;;10.80;72.70;;;;;;5023273;28;20026;-62
2022/03/18 07:10:58;;;;;;;11.05;5.75;;;10.90;72.40;;;;;;5030462;28;20025;-63
2022/03/18 07:13:24;;;;;;;8.80;6.05;;;10.90;73.30;;;;;;5031325;28;20398;-63
2022/03/18 07:15:49;;;;;;;15.75;6.38;;;10.90;72.50;;;;;;5024897;28;20083;-62
2022/03/18 07:18:15;;;;;;;15.27;5.78;;;10.90;72.60;;;;;;5021885;28;20076;-61
2022/03/18 07:20:40;;;;;;;13.43;5.38;;;11.00;72.80;;;;;;5027141;28;20025;-62
2022/03/18 07:23:10;;;;;;;11.75;6.25;;;11.00;72.90;;;;;;5029394;28;20052;-59
2022/03/18 07:25:41;;;;;;;11.40;5.47;;;11.10;72.90;;;;;;5030538;28;20021;-59
2022/03/18 07:28:08;;;;;;;20.70;6.85;;;10.80;72.80;;;;;;5028848;28;20030;-59
2022/03/18 07:30:39;;;;;;;12.40;5.57;;;10.60;74.00;;;;;;5026662;28;20045;-56
2022/03/18 07:33:04;;;;;;;10.43;5.38;;;10.40;74.10;;;;;;5019174;28;20029;-56
2022/03/18 07:35:31;;;;;;;10.68;5.10;;;10.40;74.30;;;;;;5031766;28;20021;-54
2022/03/18 07:37:57;;;;;;;11.25;5.50;;;10.30;74.30;;;;;;5031200;28;20037;-54
2022/03/18 07:40:24;;;;;;;16.80;5.28;;;10.20;74.60;;;;;;5032280;28;20030;-62
2022/03/18 07:42:55;;;;;;;13.52;5.22;;;10.20;75.30;;;;;;5027525;28;20053;-63
2022/03/18 07:45:26;;;;;;;10.65;5.13;;;10.20;75.40;;;;;;5023932;28;20029;-63
2022/03/18 07:47:52;;;;;;;10.98;4.38;;;10.30;75.30;;;;;;5029450;28;20030;-63
2022/03/18 07:50:22;;;;;;;10.00;4.70;;;10.40;74.70;;;;;;5028623;28;20079;-64
2022/03/18 07:52:52;;;;;;;10.90;5.20;;;10.50;74.60;;;;;;5019918;28;20029;-59
2022/03/18 07:55:20;;;;;;;10.40;4.85;;;10.50;74.30;;;;;;5007610;28;20040;-59
2022/03/18 07:57:46;;;;;;;11.40;5.22;;;10.50;74.70;;;;;;5031811;28;20040;-58
2022/03/18 08:00:13;;;;;;;10.88;4.55;;;10.50;74.20;;;;;;5032859;28;20025;-57
2022/03/18 08:02:40;;;;;;;14.50;5.22;;;10.50;74.70;;;;;;5032829;28;20079;-61
2022/03/18 08:05:06;;;;;;;16.20;5.10;;;10.60;75.00;;;;;;5021644;28;20021;-66
2022/03/18 08:07:33;;;;;;;15.55;5.63;;;10.60;74.30;;;;;;5031977;28;20076;-59
2022/03/18 08:09:59;;;;;;;11.85;5.05;;;10.60;75.10;;;;;;5031473;28;20037;-67
2022/03/18 08:12:27;;;;;;;16.70;5.93;;;10.60;74.80;;;;;;5032020;28;20037;-67
2022/03/18 08:14:58;;;;;;;16.63;5.43;;;10.60;74.40;;;;;;5032806;28;20100;-66
2022/03/18 08:17:24;;;;;;;12.15;4.03;;;10.70;74.70;;;;;;5032428;28;20037;-66
2022/03/18 08:19:51;;;;;;;15.15;5.15;;;10.70;74.10;;;;;;5023989;28;20025;-65
2022/03/18 08:22:21;;;;;;;11.80;4.13;;;10.70;74.40;;;;;;5032496;28;20030;-66
2022/03/18 08:24:47;;;;;;;12.25;4.40;;;10.60;73.80;;;;;;5030782;28;20030;-61
2022/03/18 08:27:13;;;;;;;14.82;4.85;;;10.70;73.90;;;;;;5027156;28;20471;-67
2022/03/18 08:29:38;;;;;;;9.63;3.83;;;10.70;74.00;;;;;;5032054;28;20044;-67
2022/03/18 08:32:11;;;;;;;9.18;4.28;;;10.70;74.40;;;;;;5032594;28;20048;-68
2022/03/18 08:34:37;;;;;;;9.10;3.22;;;10.70;74.10;;;;;;5014490;28;20026;-67
2022/03/18 08:37:05;;;;;;;12.27;4.18;;;10.60;74.00;;;;;;5012524;28;20040;-61
2022/03/18 08:39:34;;;;;;;10.73;4.18;;;10.70;73.70;;;;;;5012129;28;20022;-64
2022/03/18 08:42:00;;;;;;;12.73;4.10;;;10.70;73.70;;;;;;5022165;28;20115;-66
2022/03/18 08:44:26;;;;;;;12.15;4.60;;;10.80;73.20;;;;;;5029390;28;20025;-59
2022/03/18 08:46:52;;;;;;;14.23;4.95;;;10.80;73.50;;;;;;5027048;28;20018;-66
2022/03/18 08:49:17;;;;;;;9.45;4.75;;;10.80;73.70;;;;;;5027642;28;20025;-53
2022/03/18 08:51:43;;;;;;;13.98;4.57;;;10.80;74.00;;;;;;5020700;28;20058;-65
2022/03/18 08:54:09;;;;;;;10.38;4.25;;;10.80;74.20;;;;;;5024666;28;20025;-57
2022/03/18 08:56:35;;;;;;;14.00;5.72;;;10.90;74.40;;;;;;5021677;28;20026;-56
2022/03/18 08:59:03;;;;;;;11.52;5.10;;;10.90;74.30;;;;;;5022889;28;20026;-54
2022/03/18 09:01:29;;;;;;;20.35;6.22;;;10.90;74.20;;;;;;5026661;28;20021;-60
2022/03/18 09:03:55;;;;;;;13.65;5.60;;;11.00;74.60;;;;;;5031082;28;20398;-61
2022/03/18 09:06:21;;;;;;;12.48;5.47;;;11.00;73.60;;;;;;5031053;28;20020;-56
2022/03/18 09:08:46;;;;;;;9.52;4.22;;;11.00;74.10;;;;;;5030667;28;20484;-58
2022/03/18 09:11:12;;;;;;;14.07;5.72;;;11.10;72.50;;;;;;5023079;28;20463;-58
2022/03/18 09:13:37;;;;;;;8.95;4.93;;;11.20;72.90;;;;;;5027359;28;20025;-55
2022/03/18 09:16:04;;;;;;;16.50;5.30;;;11.30;72.90;;;;;;5029575;28;20022;-61
2022/03/18 09:18:30;;;;;;;12.30;4.40;;;11.30;72.20;;;;;;5025427;28;20026;-56
2022/03/18 09:20:57;;;;;;;13.18;4.97;;;11.20;70.60;;;;;;5033751;28;20022;-59
2022/03/18 09:23:22;;;;;;;14.05;3.67;;;11.10;70.50;;;;;;5033842;28;20072;-66
2022/03/18 09:25:48;;;;;;;14.23;4.47;;;11.10;68.20;;;;;;5029700;28;20048;-58
2022/03/18 09:28:14;;;;;;;14.15;3.95;;;11.10;68.60;;;;;;5027971;28;20549;-56
2022/03/18 09:30:40;;;;;;;10.60;3.58;;;11.20;69.10;;;;;;5027082;28;20029;-57
2022/03/18 09:33:05;;;;;;;13.20;3.55;;;11.20;69.30;;;;;;5026211;28;20426;-54
2022/03/18 09:35:31;;;;;;;9.57;3.60;;;11.20;67.90;;;;;;5034567;28;20509;-59
2022/03/18 09:37:57;;;;;;;11.13;3.88;;;11.30;67.70;;;;;;5034522;28;20057;-60
2022/03/18 09:40:22;;;;;;;6.13;2.95;;;11.30;67.70;;;;;;5034703;28;20075;-60
2022/03/18 09:43:02;;;;;;;9.07;3.60;;;11.30;66.10;;;;;;5032346;28;20077;-56
2022/03/18 09:45:33;;;;;;;6.85;2.88;;;11.30;70.40;;;;;;5035563;28;20030;-58
2022/03/18 09:48:00;;;;;;;8.90;3.35;;;11.60;69.90;;;;;;5033377;28;20029;-65
2022/03/18 09:50:27;;;;;;;13.75;3.72;;;11.70;68.00;;;;;;5007304;28;20502;-62
2022/03/18 09:52:52;;;;;;;6.53;2.70;;;11.90;67.20;;;;;;5033886;28;20033;-64
2022/03/18 09:55:18;;;;;;;8.90;3.53;;;12.00;67.10;;;;;;5034507;28;20025;-62
2022/03/18 09:57:44;;;;;;;11.20;2.75;;;12.10;67.00;;;;;;5028779;28;20383;-65
2022/03/18 10:00:10;;;;;;;6.72;2.33;;;12.20;66.50;;;;;;5017319;28;20049;-63
2022/03/18 10:02:36;;;;;;;6.85;2.75;;;12.20;64.20;;;;;;5035024;28;20025;-63
2022/03/18 10:05:20;;;;;;;7.35;2.72;;;12.20;64.10;;;;;;5034545;28;20514;-65
2022/03/18 10:07:54;;;;;;;9.93;2.13;;;12.30;64.40;;;;;;5023054;28;20026;-63
2022/03/18 10:10:20;;;;;;;10.50;2.13;;;12.30;62.30;;;;;;5031969;28;20398;-65
2022/03/18 10:12:50;;;;;;;14.25;1.92;;;12.30;62.50;;;;;;5035265;28;20113;-64
2022/03/18 10:15:18;;;;;;;4.88;1.58;;;12.40;61.90;;;;;;5035020;28;20025;-65
2022/03/18 10:17:52;;;;;;;8.38;2.20;;;12.40;62.20;;;;;;5033750;28;20497;-65
2022/03/18 10:20:27;;;;;;;7.47;2.40;;;12.50;62.10;;;;;;5034741;28;20067;-65
2022/03/18 10:22:54;;;;;;;10.90;2.88;;;12.50;62.70;;;;;;5031956;28;20040;-64
2022/03/18 10:25:36;;;;;;;6.15;2.47;;;12.60;62.20;;;;;;5022314;28;20018;-63
2022/03/18 10:28:05;;;;;;;8.07;2.28;;;12.60;63.00;;;;;;5025937;28;20037;-61
2022/03/18 10:30:32;;;;;;;11.20;2.50;;;12.60;62.30;;;;;;5020725;28;20021;-63
2022/03/18 10:32:58;;;;;;;7.50;2.60;;;12.70;62.00;;;;;;5030615;28;20029;-64
2022/03/18 10:38:32;;;;;;;6.63;2.50;;;12.70;61.00;;;;;;5022755;28;20398;-63
2022/03/18 10:41:00;;;;;;;6.15;2.20;;;12.70;61.30;;;;;;5024825;28;20041;-64
2022/03/18 10:43:26;;;;;;;7.93;2.65;;;12.70;61.30;;;;;;5034046;28;20028;-59
2022/03/18 10:46:04;;;;;;;9.63;3.30;;;12.80;62.60;;;;;;5027712;28;20040;-64
2022/03/18 10:48:30;;;;;;;9.38;3.00;;;12.80;61.60;;;;;;5022865;28;20108;-60
2022/03/18 10:51:07;;;;;;;9.55;3.30;;;12.80;62.50;;;;;;5022817;28;20100;-59
2022/03/18 10:53:35;;;;;;;9.73;3.33;;;12.80;62.60;;;;;;5024049;28;20025;-65
2022/03/18 10:56:01;;;;;;;9.52;3.42;;;12.90;62.20;;;;;;5033154;28;20022;-60
2022/03/18 10:58:30;;;;;;;8.57;3.10;;;12.90;62.50;;;;;;5016201;28;20459;-61
2022/03/18 11:00:58;;;;;;;7.82;2.83;;;13.00;62.60;;;;;;5033631;28;20025;-64
2022/03/18 11:03:25;;;;;;;10.98;3.33;;;13.00;63.00;;;;;;5033641;28;20511;-65
2022/03/18 11:05:51;;;;;;;12.13;3.55;;;13.00;63.40;;;;;;5028109;28;20026;-65
2022/03/18 11:08:24;;;;;;;8.73;3.08;;;13.10;62.70;;;;;;5032904;28;20026;-64
2022/03/18 11:11:17;;;;;;;7.03;2.78;;;13.10;63.10;;;;;;5029529;28;20036;-65
2022/03/18 11:13:50;;;;;;;;;;;13.10;62.50;;;;;;5024820;28;20033;-65
2022/03/18 11:16:29;;;;;;;10.68;3.05;;;13.10;64.20;;;;;;5027406;28;20342;-64
2022/03/18 11:18:57;;;;;;;7.43;2.78;;;13.10;63.20;;;;;;5033480;28;20439;-63
2022/03/18 11:21:35;;;;;;;8.90;3.10;;;13.20;62.60;;;;;;5033174;28;20112;-64
2022/03/18 11:24:03;;;;;;;8.07;3.00;;;13.20;63.00;;;;;;5027374;28;20033;-64
2022/03/18 11:26:31;;;;;;;8.57;2.95;;;13.20;62.80;;;;;;5028995;28;20018;-65
2022/03/18 11:29:13;;;;;;;7.95;3.03;;;13.30;62.60;;;;;;5024809;28;20052;-62
2022/03/18 11:31:39;;;;;;;7.78;3.13;;;13.30;63.00;;;;;;5032458;28;20026;-64
2022/03/18 11:34:15;;;;;;;8.45;3.15;;;13.30;62.80;;;;;;5023713;28;20459;-65
2022/03/18 11:36:46;;;;;;;7.82;2.92;;;13.30;63.10;;;;;;5029952;28;20052;-65
2022/03/18 11:39:20;;;;;;;4.80;2.85;;;13.40;62.80;;;;;;5033394;28;20055;-64
2022/03/18 11:41:56;;;;;;;8.50;3.38;;;13.40;62.90;;;;;;5030170;28;20060;-64
2022/03/18 11:44:42;;;;;;;8.23;3.15;;;13.40;63.20;;;;;;5030050;28;20026;-60
2022/03/18 11:47:20;;;;;;;8.52;3.10;;;13.50;62.90;;;;;;5023054;28;20022;-57
2022/03/18 11:49:47;;;;;;;7.32;3.22;;;13.50;63.40;;;;;;5032732;28;20030;-63
2022/03/18 11:52:12;;;;;;;5.47;2.95;;;13.50;62.40;;;;;;5031093;28;20017;-65
2022/03/18 11:55:01;;;;;;;8.02;3.45;;;13.50;62.50;;;;;;5033119;28;20022;-65
2022/03/18 11:57:29;;;;;;;5.97;3.28;;;13.60;62.80;;;;;;5026805;28;20023;-65
2022/03/18 11:59:55;;;;;;;8.95;3.30;;;13.60;62.50;;;;;;5032734;28;20014;-56
2022/03/18 12:02:31;;;;;;;5.82;3.10;;;13.60;62.60;;;;;;5029887;28;20033;-61
2022/03/18 12:04:58;;;;;;;14.77;3.63;;;13.70;62.50;;;;;;5027696;28;20374;-64
2022/03/18 12:07:44;;;;;;;6.70;2.30;;;13.70;62.80;;;;;;5011896;28;20382;-63
2022/03/18 12:10:13;;;;;;;8.38;3.17;;;13.70;62.50;;;;;;5028962;28;20076;-62
2022/03/18 12:12:40;;;;;;;11.07;3.25;;;13.70;61.90;;;;;;5030135;28;20037;-64
2022/03/18 12:15:17;;;;;;;9.05;2.60;;;13.80;62.30;;;;;;5031460;28;20061;-65
2022/03/18 12:17:54;;;;;;;8.52;3.20;;;13.80;62.40;;;;;;5013804;28;20035;-64
2022/03/18 12:20:25;;;;;;;6.10;2.67;;;13.80;62.40;;;;;;5029263;28;20573;-64
2022/03/18 12:22:53;;;;;;;6.82;2.85;;;13.90;62.30;;;;;;5032885;28;20053;-64
2022/03/18 12:25:21;;;;;;;6.63;2.67;;;13.90;62.50;;;;;;5029679;28;20032;-63
2022/03/18 12:27:47;;;;;;;6.50;2.35;;;14.00;62.00;;;;;;5026329;28;20030;-64
2022/03/18 12:30:17;;;;;;;7.93;2.65;;;13.90;61.20;;;;;;5029289;28;20026;-63
2022/03/18 12:32:55;;;;;;;7.05;2.60;;;13.90;61.50;;;;;;5032028;28;20033;-64
2022/03/18 12:35:29;;;;;;;5.20;2.38;;;13.90;61.40;;;;;;5021062;28;20028;-62
2022/03/18 12:38:05;;;;;;;6.25;2.22;;;14.00;62.20;;;;;;5031692;28;20104;-61
2022/03/18 12:40:31;;;;;;;6.80;2.40;;;14.00;61.60;;;;;;5032250;28;20557;-57
2022/03/18 12:42:59;;;;;;;7.88;2.90;;;14.00;61.30;;;;;;5031718;28;20041;-59
2022/03/18 12:45:37;;;;;;;4.45;2.10;;;14.00;61.30;;;;;;5032591;28;20044;-60
2022/03/18 12:48:12;;;;;;;6.60;2.40;;;14.00;61.50;;;;;;5031887;28;20068;-60
2022/03/18 12:50:39;;;;;;;6.50;2.50;;;13.90;60.80;;;;;;5030572;28;20372;-58
2022/03/18 12:53:16;;;;;;;9.23;2.75;;;13.90;61.90;;;;;;5033357;28;20048;-59
2022/03/18 12:55:43;;;;;;;5.63;2.40;;;14.00;62.10;;;;;;5034371;28;20079;-58